Time;durP1;ratioP1;P1;durP2;ratioP2;P2;SDS_P1;SDS_P2;PMS_P1;PMS_P2;Temp;Humidity;BMP_temperature;BMP_pressure;BME280_temperature;BME280_humidity;BME280_pressure;Samples;Min_cycle;Max_cycle;Signal;HPM_P1;HPM_P2
2022/08/16 00:01:35;;;;;;;4.85;1.52;;;27.20;99.90;;;;;;4210323;28;20421;-68
2022/08/16 00:03:44;;;;;;;5.10;1.90;;;27.20;99.90;;;;;;4175826;28;20053;-69
2022/08/16 00:05:49;;;;;;;6.88;2.08;;;27.20;99.90;;;;;;4209847;28;20398;-68
2022/08/16 00:08:03;;;;;;;8.00;2.05;;;27.20;99.90;;;;;;4212157;28;20036;-69
2022/08/16 00:10:11;;;;;;;8.15;2.40;;;27.20;99.90;;;;;;4207008;28;20109;-68
2022/08/16 00:12:24;;;;;;;4.07;2.08;;;27.20;99.90;;;;;;4211776;28;20117;-69
2022/08/16 00:14:31;;;;;;;9.63;2.05;;;27.20;99.90;;;;;;4205173;28;20083;-69
2022/08/16 00:16:38;;;;;;;3.47;1.55;;;27.20;99.90;;;;;;4211725;28;20565;-69
2022/08/16 00:19:03;;;;;;;6.20;1.80;;;27.20;99.90;;;;;;4209380;28;20159;-69
2022/08/16 00:21:10;;;;;;;6.25;1.58;;;27.20;99.90;;;;;;4208725;28;20093;-69
2022/08/16 00:23:17;;;;;;;6.90;1.70;;;27.30;99.90;;;;;;4210596;28;20043;-69
2022/08/16 00:25:27;;;;;;;4.30;1.45;;;27.30;99.90;;;;;;4210953;28;20040;-69
2022/08/16 00:27:53;;;;;;;4.15;1.17;;;27.30;99.90;;;;;;4209667;28;20036;-69
2022/08/16 00:30:00;;;;;;;2.33;0.90;;;27.30;99.90;;;;;;4209970;28;20032;-69
2022/08/16 00:32:21;;;;;;;1.77;1.00;;;27.20;99.90;;;;;;4210853;28;20101;-68
2022/08/16 00:34:27;;;;;;;4.55;1.25;;;27.30;99.90;;;;;;4188184;28;20123;-68
2022/08/16 00:36:55;;;;;;;2.45;0.70;;;27.30;99.90;;;;;;4174768;28;20052;-68
2022/08/16 00:39:00;;;;;;;2.80;0.80;;;27.30;99.90;;;;;;4176695;28;20391;-68
2022/08/16 00:41:08;;;;;;;1.73;0.82;;;27.40;99.90;;;;;;4159830;28;20144;-68
2022/08/16 00:43:17;;;;;;;2.30;1.05;;;27.40;99.90;;;;;;4176538;28;20051;-68
2022/08/16 00:45:37;;;;;;;2.35;1.00;;;27.40;99.90;;;;;;4176728;28;20592;-67
2022/08/16 00:48:05;;;;;;;2.60;1.10;;;27.50;99.90;;;;;;4164857;28;20072;-69
2022/08/16 00:50:33;;;;;;;7.90;1.55;;;27.40;99.90;;;;;;4126882;28;20054;-69
2022/08/16 00:52:39;;;;;;;4.05;1.48;;;27.40;99.90;;;;;;4143768;28;20057;-68
2022/08/16 00:54:55;;;;;;;3.42;1.23;;;27.50;99.90;;;;;;4143336;28;20087;-68
2022/08/16 00:57:02;;;;;;;3.00;1.42;;;27.40;99.90;;;;;;4111258;28;20481;-69
2022/08/16 00:59:10;;;;;;;3.38;1.38;;;27.50;99.90;;;;;;4127674;28;20523;-68
2022/08/16 01:01:19;;;;;;;4.18;1.45;;;27.50;99.90;;;;;;4143369;28;20088;-69
2022/08/16 01:03:27;;;;;;;3.72;1.65;;;27.50;99.90;;;;;;4144378;28;20056;-69
2022/08/16 01:05:34;;;;;;;3.15;1.70;;;27.50;99.90;;;;;;4141870;28;20103;-70
2022/08/16 01:07:43;;;;;;;3.88;1.60;;;27.60;99.90;;;;;;4127526;28;20081;-69
2022/08/16 01:09:55;;;;;;;3.15;1.52;;;27.60;99.90;;;;;;4127997;28;20617;-69
2022/08/16 01:12:02;;;;;;;3.25;1.35;;;27.60;99.90;;;;;;4111813;28;20074;-70
2022/08/16 01:14:21;;;;;;;2.78;1.33;;;27.60;99.90;;;;;;4151736;28;20077;-69
2022/08/16 01:16:33;;;;;;;2.88;1.60;;;27.70;99.90;;;;;;4188546;28;20136;-69
2022/08/16 01:18:51;;;;;;;2.10;1.40;;;27.70;99.90;;;;;;4176327;28;20098;-70
2022/08/16 01:21:13;;;;;;;3.25;1.40;;;27.70;99.90;;;;;;4136431;28;20144;-69
2022/08/16 01:23:56;;;;;;;4.03;1.77;;;27.80;99.90;;;;;;4140789;28;20466;-68
2022/08/16 01:26:05;;;;;;;5.57;1.95;;;27.90;99.90;;;;;;4172975;28;20135;-69
2022/08/16 01:28:31;;;;;;;5.95;1.65;;;28.00;99.90;;;;;;4190596;28;20044;-70
2022/08/16 01:30:50;;;;;;;7.95;1.90;;;28.10;99.90;;;;;;4209946;28;20121;-67
2022/08/16 01:33:00;;;;;;;21.10;4.30;;;28.20;99.90;;;;;;4200800;28;20056;-70
2022/08/16 01:35:30;;;;;;;23.85;4.68;;;28.30;99.90;;;;;;4193003;28;20503;-69
2022/08/16 01:37:48;;;;;;;31.05;7.15;;;28.40;99.90;;;;;;4226336;28;20065;-69
2022/08/16 01:40:03;;;;;;;37.75;8.45;;;28.50;99.90;;;;;;4227173;28;20388;-70
2022/08/16 01:42:10;;;;;;;26.77;5.60;;;28.50;99.90;;;;;;4207864;28;20833;-69
2022/08/16 01:44:21;;;;;;;20.13;4.50;;;28.50;99.90;;;;;;4209905;28;20093;-70
2022/08/16 01:46:45;;;;;;;12.48;3.90;;;28.60;99.90;;;;;;4206046;28;20106;-69
2022/08/16 01:49:00;;;;;;;6.63;2.22;;;28.50;99.90;;;;;;4210210;28;20055;-69
2022/08/16 01:51:06;;;;;;;13.13;4.25;;;28.50;99.90;;;;;;4209842;28;20040;-73
2022/08/16 01:53:20;;;;;;;11.02;3.30;;;28.60;99.90;;;;;;4211033;28;20048;-68
2022/08/16 01:55:40;;;;;;;10.60;3.35;;;28.60;99.90;;;;;;4195990;28;20106;-68
2022/08/16 01:57:57;;;;;;;7.93;2.47;;;28.60;99.90;;;;;;4193020;28;20052;-70
2022/08/16 02:00:07;;;;;;;6.85;1.70;;;28.70;99.90;;;;;;4202986;28;20063;-68
2022/08/16 02:02:23;;;;;;;7.03;2.10;;;28.70;99.90;;;;;;4197928;28;20105;-68
2022/08/16 02:04:31;;;;;;;5.78;1.60;;;28.60;99.90;;;;;;4194174;28;20048;-68
2022/08/16 02:06:56;;;;;;;4.35;1.50;;;28.60;99.90;;;;;;4194449;28;20052;-68
2022/08/16 02:09:01;;;;;;;3.95;1.88;;;28.60;99.90;;;;;;4193678;28;20113;-68
2022/08/16 02:11:09;;;;;;;4.40;1.85;;;28.50;99.90;;;;;;4193048;28;20094;-69
2022/08/16 02:13:15;;;;;;;2.78;1.70;;;28.60;99.90;;;;;;4209263;28;20093;-68
2022/08/16 02:15:22;;;;;;;3.03;1.60;;;28.60;99.90;;;;;;4209979;28;20534;-69
2022/08/16 02:17:31;;;;;;;3.00;1.55;;;28.60;99.90;;;;;;4193943;28;20049;-68
2022/08/16 02:19:41;;;;;;;7.00;2.05;;;28.60;99.90;;;;;;4209886;28;20037;-68
2022/08/16 02:22:03;;;;;;;8.80;1.95;;;28.60;99.90;;;;;;4202446;28;20028;-68
2022/08/16 02:24:29;;;;;;;4.93;1.60;;;28.70;99.90;;;;;;4158978;28;20554;-68
2022/08/16 02:26:44;;;;;;;2.78;1.52;;;28.70;99.90;;;;;;4159156;28;20048;-69
2022/08/16 02:28:53;;;;;;;3.30;1.63;;;28.70;99.90;;;;;;4158879;28;20389;-68
2022/08/16 02:31:01;;;;;;;3.45;1.67;;;28.70;99.90;;;;;;4158702;28;20053;-69
2022/08/16 02:33:08;;;;;;;3.83;1.50;;;28.60;99.90;;;;;;4158920;28;20061;-69
2022/08/16 02:35:13;;;;;;;2.90;1.48;;;28.70;99.90;;;;;;4159203;28;20052;-70
2022/08/16 02:37:25;;;;;;;3.17;1.48;;;28.60;99.90;;;;;;4175948;28;20037;-70
2022/08/16 02:39:51;;;;;;;3.35;1.58;;;28.60;99.90;;;;;;4178736;28;20060;-69
2022/08/16 02:41:56;;;;;;;2.97;1.42;;;28.60;99.90;;;;;;4178554;28;20680;-69
2022/08/16 02:44:04;;;;;;;1.60;1.40;;;28.60;99.90;;;;;;4178631;28;20052;-69
2022/08/16 02:46:11;;;;;;;2.42;1.67;;;28.70;99.90;;;;;;4161826;28;20049;-68
2022/08/16 02:48:18;;;;;;;5.57;2.10;;;28.70;99.90;;;;;;4178351;28;20146;-68
2022/08/16 02:50:35;;;;;;;3.85;1.50;;;28.80;99.90;;;;;;4159692;28;20052;-68
2022/08/16 02:53:01;;;;;;;2.83;1.83;;;28.80;99.90;;;;;;4176493;28;20050;-69
2022/08/16 02:55:07;;;;;;;4.90;1.63;;;28.80;99.90;;;;;;4169322;28;20041;-68
2022/08/16 02:57:18;;;;;;;7.55;1.63;;;28.90;99.90;;;;;;4210505;28;20044;-69
2022/08/16 02:59:26;;;;;;;4.05;1.70;;;28.90;99.90;;;;;;4213521;28;20044;-69
2022/08/16 03:01:45;;;;;;;5.50;1.42;;;28.90;99.90;;;;;;4210890;28;20041;-69
2022/08/16 03:03:59;;;;;;;2.40;1.60;;;28.90;99.90;;;;;;4210547;28;20570;-68
2022/08/16 03:06:26;;;;;;;3.92;1.65;;;29.00;99.90;;;;;;4198292;28;20097;-68
2022/08/16 03:08:53;;;;;;;5.05;1.30;;;29.00;99.90;;;;;;4212371;28;20123;-68
2022/08/16 03:11:04;;;;;;;4.78;1.60;;;29.10;99.90;;;;;;4196416;28;20530;-68
2022/08/16 03:13:22;;;;;;;2.00;1.52;;;29.00;99.90;;;;;;4228395;28;20035;-68
2022/08/16 03:15:27;;;;;;;3.03;1.40;;;29.00;99.90;;;;;;4213095;28;20044;-68
2022/08/16 03:17:35;;;;;;;4.65;1.88;;;29.10;99.90;;;;;;4209844;28;20044;-69
2022/08/16 03:20:00;;;;;;;2.17;1.13;;;29.10;99.90;;;;;;4210125;28;20122;-68
2022/08/16 03:22:12;;;;;;;3.30;1.42;;;29.20;99.90;;;;;;4210464;28;20417;-68
2022/08/16 03:24:32;;;;;;;3.17;1.58;;;29.20;99.90;;;;;;4209678;28;20064;-69
2022/08/16 03:26:41;;;;;;;2.50;1.23;;;29.20;99.90;;;;;;4211840;28;20044;-69
2022/08/16 03:28:47;;;;;;;3.53;1.27;;;29.20;99.90;;;;;;4211811;28;20055;-69
2022/08/16 03:30:52;;;;;;;1.92;1.35;;;29.20;99.90;;;;;;4225294;28;20183;-68
2022/08/16 03:33:01;;;;;;;2.42;1.30;;;29.30;99.90;;;;;;4229347;28;20050;-68
2022/08/16 03:35:10;;;;;;;1.40;1.20;;;29.30;99.90;;;;;;4196262;28;20048;-70
2022/08/16 03:37:21;;;;;;;2.80;1.50;;;29.30;99.90;;;;;;4177241;28;20079;-68
2022/08/16 03:39:27;;;;;;;4.05;1.60;;;29.30;99.90;;;;;;4211729;28;20763;-67
2022/08/16 03:41:33;;;;;;;3.80;2.47;;;29.40;99.90;;;;;;4212506;28;20670;-68
2022/08/16 03:43:56;;;;;;;4.20;1.73;;;29.50;99.90;;;;;;4212295;28;20094;-68
2022/08/16 03:46:09;;;;;;;3.72;1.50;;;29.60;99.90;;;;;;4212316;28;20377;-68
2022/08/16 03:48:14;;;;;;;2.55;1.50;;;29.60;99.90;;;;;;4212272;28;20044;-68
2022/08/16 03:50:22;;;;;;;2.15;1.52;;;29.70;99.90;;;;;;4177764;28;20053;-68
2022/08/16 03:52:32;;;;;;;3.22;1.30;;;29.80;99.90;;;;;;4212467;28;20056;-68
2022/08/16 03:54:37;;;;;;;4.00;1.23;;;30.00;99.90;;;;;;4212349;28;20085;-69
2022/08/16 03:56:56;;;;;;;1.95;1.05;;;30.00;99.90;;;;;;4212054;28;20043;-68
2022/08/16 03:59:07;;;;;;;1.30;1.20;;;30.00;99.90;;;;;;4212268;28;20036;-68
2022/08/16 04:01:23;;;;;;;1.67;1.30;;;30.10;99.90;;;;;;4212095;28;20058;-68
2022/08/16 04:03:34;;;;;;;1.95;1.30;;;30.10;99.90;;;;;;4211870;28;20139;-68
2022/08/16 04:05:42;;;;;;;2.35;1.45;;;30.20;99.90;;;;;;4211926;28;20134;-68
2022/08/16 04:07:51;;;;;;;3.42;1.25;;;30.20;99.90;;;;;;4212101;28;20051;-67
2022/08/16 04:09:59;;;;;;;1.88;1.17;;;30.20;99.90;;;;;;4211693;28;20051;-66
2022/08/16 04:12:26;;;;;;;2.33;1.30;;;30.20;99.90;;;;;;4212079;28;20076;-67
2022/08/16 04:14:51;;;;;;;2.75;1.20;;;30.40;99.90;;;;;;4213231;28;20048;-68
2022/08/16 04:16:59;;;;;;;1.45;1.10;;;30.50;99.90;;;;;;4211877;28;20063;-68
2022/08/16 04:19:12;;;;;;;1.55;1.05;;;30.60;99.90;;;;;;4213148;28;20071;-68
2022/08/16 04:21:17;;;;;;;2.92;1.52;;;30.50;99.90;;;;;;4211957;28;20078;-68
2022/08/16 04:23:32;;;;;;;1.05;0.93;;;30.60;99.90;;;;;;4177369;28;20049;-69
2022/08/16 04:25:41;;;;;;;1.33;1.10;;;30.70;99.90;;;;;;4211730;28;20040;-68
2022/08/16 04:27:50;;;;;;;1.75;1.10;;;30.60;99.90;;;;;;4206547;28;20139;-68
2022/08/16 04:29:59;;;;;;;1.65;1.20;;;30.60;99.90;;;;;;4179571;28;20110;-68
2022/08/16 04:32:13;;;;;;;1.10;1.00;;;30.40;99.90;;;;;;4195138;28;20049;-68
2022/08/16 04:34:26;;;;;;;1.33;0.98;;;30.50;99.90;;;;;;4194957;28;20135;-68
2022/08/16 04:36:32;;;;;;;2.35;1.10;;;30.40;99.90;;;;;;4194469;28;20127;-68
2022/08/16 04:38:39;;;;;;;1.38;1.20;;;30.30;99.90;;;;;;4194634;28;20584;-68
2022/08/16 04:40:46;;;;;;;3.03;1.20;;;30.40;99.90;;;;;;4194857;28;20450;-68
2022/08/16 04:42:54;;;;;;;2.72;1.17;;;30.50;99.90;;;;;;4192162;28;20051;-68
2022/08/16 04:45:03;;;;;;;4.00;1.20;;;30.70;99.90;;;;;;4228495;28;20051;-68
2022/08/16 04:47:09;;;;;;;2.70;1.30;;;30.70;99.90;;;;;;4211577;28;20048;-68
2022/08/16 04:49:27;;;;;;;1.88;1.15;;;30.70;99.90;;;;;;4211522;28;20052;-68
2022/08/16 04:51:52;;;;;;;6.25;1.65;;;30.60;99.90;;;;;;4211132;28;20048;-70
2022/08/16 04:53:57;;;;;;;7.18;1.40;;;30.60;99.90;;;;;;4195873;28;20049;-69
2022/08/16 04:56:05;;;;;;;4.35;1.42;;;30.70;99.90;;;;;;4195711;28;20040;-65
2022/08/16 04:58:19;;;;;;;2.33;1.00;;;30.70;99.90;;;;;;4194678;28;20072;-66
2022/08/16 05:00:44;;;;;;;2.42;1.00;;;30.80;99.90;;;;;;4194753;28;20605;-68
2022/08/16 05:02:54;;;;;;;1.80;1.00;;;30.70;99.90;;;;;;4194604;28;20094;-68
2022/08/16 05:05:05;;;;;;;7.15;1.40;;;30.80;99.90;;;;;;4195680;28;20190;-68
2022/08/16 05:07:20;;;;;;;3.78;1.02;;;30.80;99.90;;;;;;4194312;28;20738;-68
2022/08/16 05:09:36;;;;;;;2.50;1.00;;;30.80;99.90;;;;;;4194479;28;20127;-68
2022/08/16 05:11:51;;;;;;;4.03;1.00;;;30.70;99.90;;;;;;4199824;28;20039;-68
2022/08/16 05:14:02;;;;;;;2.17;1.27;;;30.70;99.90;;;;;;4211353;28;20048;-68
2022/08/16 05:16:16;;;;;;;2.33;0.98;;;30.70;99.90;;;;;;4227815;28;20048;-67
2022/08/16 05:18:30;;;;;;;2.63;1.20;;;30.70;99.90;;;;;;4211074;28;20052;-67
2022/08/16 05:20:35;;;;;;;2.63;1.27;;;30.90;99.90;;;;;;4211098;28;20079;-68
2022/08/16 05:23:02;;;;;;;2.20;1.00;;;30.90;99.90;;;;;;4176166;28;20134;-68
2022/08/16 05:25:13;;;;;;;2.08;1.30;;;31.00;99.90;;;;;;4159964;28;20049;-67
2022/08/16 05:27:22;;;;;;;5.03;1.30;;;31.00;99.90;;;;;;4175688;28;20049;-67
2022/08/16 05:29:29;;;;;;;5.20;1.40;;;31.00;99.90;;;;;;4176983;28;20103;-68
2022/08/16 05:31:55;;;;;;;3.20;1.13;;;31.00;99.90;;;;;;4159629;28;20433;-67
2022/08/16 05:34:00;;;;;;;2.97;1.25;;;31.00;99.90;;;;;;4159292;28;20095;-67
2022/08/16 05:36:23;;;;;;;1.98;1.00;;;31.20;99.90;;;;;;4175115;28;20974;-67
2022/08/16 05:38:43;;;;;;;2.00;1.15;;;31.20;99.90;;;;;;4174797;28;20087;-66
2022/08/16 05:40:49;;;;;;;1.42;1.02;;;31.20;99.90;;;;;;4159136;28;20061;-67
2022/08/16 05:43:09;;;;;;;1.55;1.08;;;31.20;99.90;;;;;;4174528;28;20491;-67
2022/08/16 05:45:17;;;;;;;3.63;1.20;;;31.30;99.90;;;;;;4176407;28;20037;-68
2022/08/16 05:47:30;;;;;;;2.38;1.45;;;31.40;99.90;;;;;;4174133;28;20148;-67
2022/08/16 05:49:46;;;;;;;5.03;1.50;;;31.30;99.90;;;;;;4159445;28;20052;-67
2022/08/16 05:51:55;;;;;;;1.95;1.33;;;31.30;99.90;;;;;;4159788;28;20511;-67
2022/08/16 05:54:00;;;;;;;1.50;1.10;;;31.30;99.90;;;;;;4153437;28;20096;-68
2022/08/16 05:56:07;;;;;;;2.15;1.10;;;31.40;99.90;;;;;;4153900;28;20076;-68
2022/08/16 05:58:15;;;;;;;2.55;1.35;;;31.40;99.90;;;;;;4159207;28;20203;-68
2022/08/16 06:00:37;;;;;;;2.97;1.20;;;31.40;99.90;;;;;;4179667;28;20526;-68
2022/08/16 06:02:41;;;;;;;3.47;1.20;;;31.40;99.90;;;;;;4211596;28;20118;-68
2022/08/16 06:05:08;;;;;;;2.72;1.20;;;31.30;99.90;;;;;;4211178;28;20080;-67
2022/08/16 06:07:18;;;;;;;2.58;1.10;;;31.40;99.90;;;;;;4211342;28;20094;-69
2022/08/16 06:09:34;;;;;;;3.10;1.17;;;31.50;99.90;;;;;;4209893;28;20044;-70
2022/08/16 06:11:52;;;;;;;2.63;1.02;;;31.40;99.90;;;;;;4210017;28;20080;-70
2022/08/16 06:13:56;;;;;;;14.30;1.83;;;31.50;99.90;;;;;;4212920;28;20522;-71
2022/08/16 06:16:22;;;;;;;12.07;1.98;;;31.50;99.90;;;;;;4213454;28;20052;-69
2022/08/16 06:18:32;;;;;;;2.55;1.30;;;31.40;99.90;;;;;;4230656;28;20062;-68
2022/08/16 06:20:39;;;;;;;1.98;1.13;;;31.50;99.90;;;;;;4213514;28;20127;-68
2022/08/16 06:23:01;;;;;;;1.58;0.90;;;31.40;99.90;;;;;;4195901;28;20094;-67
2022/08/16 06:25:33;;;;;;;1.52;0.90;;;31.50;99.90;;;;;;4214567;28;20058;-67
2022/08/16 06:27:42;;;;;;;2.25;0.95;;;31.60;99.90;;;;;;4214809;28;20039;-68
2022/08/16 06:30:07;;;;;;;2.60;1.67;;;31.70;99.90;;;;;;4213172;28;20094;-68
2022/08/16 06:32:15;;;;;;;2.50;1.40;;;31.70;99.90;;;;;;4213581;28;20059;-67
2022/08/16 06:34:30;;;;;;;2.00;1.58;;;31.70;99.90;;;;;;4198247;28;20045;-66
2022/08/16 06:36:56;;;;;;;2.38;1.45;;;31.60;99.90;;;;;;4162275;28;20057;-66
2022/08/16 06:39:05;;;;;;;2.08;1.30;;;31.70;99.90;;;;;;4177947;28;20060;-66
2022/08/16 06:41:27;;;;;;;2.58;1.60;;;31.70;99.90;;;;;;4178676;28;20048;-66
2022/08/16 06:43:54;;;;;;;3.30;1.50;;;31.70;99.90;;;;;;4178897;28;20040;-67
2022/08/16 06:46:07;;;;;;;4.35;1.35;;;31.80;99.90;;;;;;4178612;28;20041;-68
2022/08/16 06:48:12;;;;;;;1.65;1.40;;;32.00;99.90;;;;;;4162111;28;20041;-69
2022/08/16 06:50:34;;;;;;;2.13;1.33;;;32.00;99.90;;;;;;4177813;28;20099;-68
2022/08/16 06:52:45;;;;;;;2.13;1.40;;;32.10;99.90;;;;;;4162135;28;20057;-69
2022/08/16 06:55:11;;;;;;;1.70;1.50;;;32.10;99.40;;;;;;4161781;28;20049;-68
2022/08/16 06:57:21;;;;;;;1.75;1.45;;;32.10;99.60;;;;;;4161981;28;20499;-68
2022/08/16 06:59:29;;;;;;;1.92;1.30;;;32.10;99.30;;;;;;4161740;28;20049;-68
2022/08/16 07:01:55;;;;;;;2.42;1.65;;;32.20;99.40;;;;;;4162007;28;20048;-68
2022/08/16 07:04:03;;;;;;;2.42;1.42;;;32.10;98.90;;;;;;4146111;28;20129;-66
2022/08/16 07:06:18;;;;;;;1.85;1.40;;;32.10;98.80;;;;;;4162934;28;20053;-66
2022/08/16 07:08:33;;;;;;;1.92;1.30;;;32.20;98.60;;;;;;4195339;28;20044;-67
2022/08/16 07:10:41;;;;;;;1.92;1.38;;;32.20;98.80;;;;;;4212573;28;20213;-67
2022/08/16 07:12:52;;;;;;;3.05;1.38;;;32.30;98.50;;;;;;4212707;28;20101;-66
2022/08/16 07:15:13;;;;;;;2.80;1.20;;;32.20;97.80;;;;;;4212516;28;20052;-67
2022/08/16 07:17:23;;;;;;;1.65;1.08;;;32.20;98.00;;;;;;4212982;28;20125;-67
2022/08/16 07:19:31;;;;;;;1.85;1.20;;;32.30;98.10;;;;;;4212490;28;20064;-66
2022/08/16 07:22:01;;;;;;;3.33;1.33;;;32.40;98.20;;;;;;4229387;28;20164;-66
2022/08/16 07:24:29;;;;;;;2.30;1.20;;;32.40;97.30;;;;;;4194109;28;20068;-66
2022/08/16 07:26:39;;;;;;;3.63;1.20;;;32.30;97.90;;;;;;4177659;28;20491;-67
2022/08/16 07:28:51;;;;;;;2.30;1.25;;;32.40;97.70;;;;;;4194212;28;20069;-68
2022/08/16 07:31:00;;;;;;;0.90;0.85;;;32.40;97.20;;;;;;4177584;28;20049;-68
2022/08/16 07:33:10;;;;;;;3.67;1.40;;;32.30;96.40;;;;;;4178162;28;20055;-68
2022/08/16 07:35:19;;;;;;;1.15;0.70;;;32.20;96.20;;;;;;4177984;28;20059;-66
2022/08/16 07:37:26;;;;;;;1.75;0.90;;;32.20;97.20;;;;;;4128655;28;20050;-69
2022/08/16 07:39:45;;;;;;;1.20;0.70;;;32.30;97.10;;;;;;4194117;28;20044;-66
2022/08/16 07:41:52;;;;;;;2.05;0.90;;;32.30;96.60;;;;;;4177827;28;20045;-67
2022/08/16 07:43:59;;;;;;;1.85;0.93;;;32.40;97.00;;;;;;4194312;28;20049;-68
2022/08/16 07:46:18;;;;;;;1.63;0.95;;;32.50;97.40;;;;;;4192380;28;20056;-68
2022/08/16 07:48:46;;;;;;;2.88;0.90;;;32.50;97.70;;;;;;4163643;28;20042;-67
2022/08/16 07:50:57;;;;;;;1.08;0.80;;;32.40;96.30;;;;;;4148318;28;20049;-68
2022/08/16 07:53:12;;;;;;;167.63;14.77;;;32.40;96.00;;;;;;4177629;28;20049;-68
2022/08/16 07:55:17;;;;;;;64.97;7.10;;;32.50;96.70;;;;;;4187715;28;20427;-68
2022/08/16 07:57:22;;;;;;;24.20;3.00;;;32.60;96.60;;;;;;4161636;28;20103;-68
2022/08/16 07:59:29;;;;;;;10.07;1.60;;;32.50;96.80;;;;;;4193976;28;20074;-68
2022/08/16 08:01:53;;;;;;;16.73;2.40;;;32.30;97.00;;;;;;4188020;28;20087;-68
2022/08/16 08:04:02;;;;;;;13.45;2.00;;;32.30;97.70;;;;;;4206143;28;20853;-68
2022/08/16 08:06:12;;;;;;;7.88;1.10;;;32.50;97.30;;;;;;4196056;28;20131;-68
2022/08/16 08:08:18;;;;;;;4.50;1.30;;;32.60;96.60;;;;;;4211829;28;20456;-68
2022/08/16 08:10:47;;;;;;;8.77;1.80;;;32.80;96.10;;;;;;4193675;28;20125;-68
2022/08/16 08:12:56;;;;;;;1.92;1.33;;;32.60;95.80;;;;;;4193782;28;20052;-68
2022/08/16 08:15:05;;;;;;;2.28;1.27;;;32.60;95.50;;;;;;4177449;28;20063;-68
2022/08/16 08:17:15;;;;;;;1.17;0.90;;;32.70;95.90;;;;;;4161438;28;20097;-70
2022/08/16 08:19:23;;;;;;;2.72;1.33;;;32.80;96.20;;;;;;4193512;28;20125;-67
2022/08/16 08:21:30;;;;;;;1.40;1.00;;;32.80;96.40;;;;;;4177128;28;20484;-68
2022/08/16 08:23:56;;;;;;;1.77;1.00;;;32.80;95.90;;;;;;4177267;28;20065;-68
2022/08/16 08:26:05;;;;;;;2.17;1.00;;;32.80;96.30;;;;;;4193655;28;20040;-68
2022/08/16 08:28:20;;;;;;;9.50;1.13;;;32.90;96.40;;;;;;4184144;28;20377;-72
2022/08/16 08:30:29;;;;;;;2.65;0.90;;;33.00;96.60;;;;;;4176982;28;20044;-68
2022/08/16 08:32:55;;;;;;;169.15;18.15;;;33.10;96.60;;;;;;4176596;28;20256;-68
2022/08/16 08:35:10;;;;;;;72.75;9.05;;;33.00;96.60;;;;;;4159512;28;20366;-68
2022/08/16 08:37:17;;;;;;;35.38;4.63;;;33.10;96.70;;;;;;4176930;28;20117;-68
2022/08/16 08:39:24;;;;;;;6.57;1.48;;;33.00;96.60;;;;;;4176508;28;20448;-69
2022/08/16 08:41:30;;;;;;;4.80;1.55;;;32.90;96.10;;;;;;4178668;28;20656;-69
2022/08/16 08:43:38;;;;;;;2.50;1.13;;;33.00;96.20;;;;;;4176959;28;20041;-68
2022/08/16 08:45:50;;;;;;;5.18;1.25;;;33.00;96.30;;;;;;4193365;28;20048;-69
2022/08/16 08:47:57;;;;;;;4.57;1.02;;;33.00;96.40;;;;;;4168274;28;20564;-67
2022/08/16 08:50:08;;;;;;;2.63;1.10;;;33.00;96.30;;;;;;4210672;28;20051;-69
2022/08/16 08:52:14;;;;;;;2.65;1.23;;;32.90;96.60;;;;;;4227996;28;20100;-69
2022/08/16 08:54:41;;;;;;;3.63;1.00;;;32.90;96.80;;;;;;4211063;28;20105;-68
2022/08/16 08:56:46;;;;;;;1.45;0.90;;;32.90;97.00;;;;;;4194513;28;20055;-69
2022/08/16 08:59:05;;;;;;;3.47;1.20;;;32.80;97.00;;;;;;4211008;28;20110;-69
2022/08/16 09:01:27;;;;;;;2.83;1.02;;;32.60;97.70;;;;;;4210930;28;20052;-69
2022/08/16 09:03:45;;;;;;;4.40;1.20;;;32.60;97.80;;;;;;4201183;28;20071;-69
2022/08/16 09:05:51;;;;;;;2.03;1.10;;;32.60;97.70;;;;;;4209234;28;20074;-69
2022/08/16 09:07:57;;;;;;;3.05;0.90;;;32.60;97.60;;;;;;4209961;28;20549;-70
2022/08/16 09:10:19;;;;;;;4.00;0.85;;;32.60;97.50;;;;;;4226352;28;20047;-67
2022/08/16 09:12:26;;;;;;;5.20;1.05;;;32.70;97.60;;;;;;4208363;28;20138;-66
2022/08/16 09:14:49;;;;;;;1.17;0.70;;;32.70;97.80;;;;;;4209217;28;20048;-66
2022/08/16 09:16:58;;;;;;;1.52;1.00;;;32.70;98.00;;;;;;4209854;28;20051;-66
2022/08/16 09:19:21;;;;;;;2.95;0.98;;;32.70;98.20;;;;;;4237455;27;20043;-65
2022/08/16 09:21:36;;;;;;;2.90;0.85;;;32.60;98.10;;;;;;4205992;28;20047;-66
2022/08/16 09:23:44;;;;;;;0.95;0.85;;;32.50;98.30;;;;;;4210131;28;20036;-66
2022/08/16 09:25:49;;;;;;;1.35;0.90;;;32.50;98.50;;;;;;4224012;28;20139;-65
2022/08/16 09:27:54;;;;;;;2.35;1.17;;;32.50;98.70;;;;;;4207280;28;20551;-68
2022/08/16 09:30:16;;;;;;;1.38;0.82;;;32.40;98.80;;;;;;4157991;28;20045;-65
2022/08/16 09:32:41;;;;;;;2.67;0.85;;;32.30;98.80;;;;;;4209841;28;20052;-66
2022/08/16 09:34:49;;;;;;;1.08;0.90;;;32.30;99.10;;;;;;4208594;28;20048;-66
2022/08/16 09:37:00;;;;;;;1.85;0.93;;;32.30;99.20;;;;;;4209761;28;20671;-66
2022/08/16 09:39:21;;;;;;;2.08;0.82;;;32.30;99.20;;;;;;4209623;28;20048;-66
2022/08/16 09:41:27;;;;;;;1.98;0.95;;;32.10;99.30;;;;;;4207744;28;20032;-66
2022/08/16 09:43:32;;;;;;;2.50;1.13;;;32.10;99.50;;;;;;4210552;28;20147;-64
2022/08/16 09:45:57;;;;;;;3.78;1.05;;;32.00;99.70;;;;;;4193719;28;20035;-64
2022/08/16 09:48:02;;;;;;;2.50;1.20;;;31.90;99.90;;;;;;4209771;28;20036;-64
2022/08/16 09:50:09;;;;;;;3.35;1.20;;;31.90;99.90;;;;;;4174492;28;20151;-64
2022/08/16 09:52:14;;;;;;;2.00;1.00;;;31.80;99.90;;;;;;4210393;28;20094;-65
2022/08/16 09:54:22;;;;;;;1.52;0.90;;;31.80;99.90;;;;;;4210258;28;20492;-64
2022/08/16 09:56:35;;;;;;;1.50;0.90;;;31.70;99.90;;;;;;4207307;28;20496;-63
2022/08/16 09:58:41;;;;;;;2.05;1.10;;;31.50;99.90;;;;;;4209727;28;20044;-63
2022/08/16 10:01:06;;;;;;;3.97;1.30;;;31.50;99.90;;;;;;4205549;28;20044;-62
2022/08/16 10:03:14;;;;;;;1.90;1.13;;;31.50;99.90;;;;;;4210276;28;20036;-63
2022/08/16 10:05:20;;;;;;;2.70;1.15;;;31.40;99.90;;;;;;4209926;28;20714;-64
2022/08/16 10:07:26;;;;;;;3.63;1.42;;;31.40;99.90;;;;;;4209866;28;20127;-64
2022/08/16 10:09:47;;;;;;;2.25;1.10;;;31.30;99.90;;;;;;4207530;28;20052;-64
2022/08/16 10:14:22;;;;;;;2.72;0.95;;;31.20;99.90;;;;;;4208901;28;20075;-63
2022/08/16 10:16:35;;;;;;;1.65;0.80;;;31.20;99.90;;;;;;4207986;28;20079;-62
2022/08/16 10:18:43;;;;;;;4.10;1.00;;;31.20;99.90;;;;;;4209178;28;20796;-62
2022/08/16 10:21:08;;;;;;;2.28;1.02;;;31.20;99.90;;;;;;4206943;28;20036;-63
2022/08/16 10:23:14;;;;;;;1.58;0.90;;;31.10;99.90;;;;;;4209161;28;20033;-63
2022/08/16 10:25:22;;;;;;;2.65;1.00;;;31.10;99.90;;;;;;4208258;28;20539;-64
2022/08/16 10:27:47;;;;;;;5.90;1.42;;;31.00;99.90;;;;;;4207022;28;20043;-63
2022/08/16 10:30:08;;;;;;;4.57;1.35;;;31.00;99.90;;;;;;4206591;28;20487;-63
2022/08/16 10:32:29;;;;;;;3.05;1.23;;;31.00;99.90;;;;;;4209622;28;20059;-64
2022/08/16 10:34:34;;;;;;;4.97;1.33;;;31.00;99.90;;;;;;4209590;28;20029;-66
2022/08/16 10:36:41;;;;;;;4.20;1.50;;;31.00;99.90;;;;;;4209222;28;20039;-64
2022/08/16 10:38:48;;;;;;;2.53;1.33;;;30.90;99.90;;;;;;4208339;28;20036;-64
2022/08/16 10:40:54;;;;;;;1.77;1.15;;;30.90;99.90;;;;;;4207338;28;20044;-65
2022/08/16 10:43:03;;;;;;;2.83;1.60;;;30.70;99.90;;;;;;4208298;28;20040;-63
2022/08/16 10:45:21;;;;;;;2.80;1.63;;;30.80;99.90;;;;;;4208783;28;20440;-64
2022/08/16 10:47:25;;;;;;;2.42;1.27;;;30.90;99.90;;;;;;4207121;28;20036;-64
2022/08/16 10:49:35;;;;;;;3.03;1.70;;;30.90;99.90;;;;;;4209141;28;20608;-65
2022/08/16 10:51:41;;;;;;;2.72;1.55;;;30.90;99.90;;;;;;4208923;28;20044;-65
2022/08/16 10:54:07;;;;;;;4.00;1.80;;;30.90;99.90;;;;;;4207009;28;20075;-64
2022/08/16 10:56:31;;;;;;;6.40;1.90;;;30.80;99.90;;;;;;4189759;28;20131;-64
2022/08/16 10:58:57;;;;;;;5.25;2.20;;;30.70;99.90;;;;;;4211006;28;20039;-66
2022/08/16 11:01:24;;;;;;;4.07;1.50;;;30.70;99.90;;;;;;4211811;28;20040;-65
2022/08/16 11:03:46;;;;;;;5.18;1.58;;;30.60;99.90;;;;;;4210584;28;20641;-65
2022/08/16 11:05:58;;;;;;;2.28;1.38;;;30.50;99.90;;;;;;4212331;28;20036;-66
2022/08/16 11:08:07;;;;;;;3.28;1.58;;;30.60;99.90;;;;;;4209227;28;20052;-66
2022/08/16 11:10:27;;;;;;;3.22;1.25;;;30.60;99.90;;;;;;4211439;28;20130;-66
2022/08/16 11:12:53;;;;;;;2.00;1.17;;;30.60;99.90;;;;;;4210572;28;20139;-67
2022/08/16 11:14:58;;;;;;;4.47;1.40;;;30.60;99.90;;;;;;4212104;28;20285;-66
2022/08/16 11:17:20;;;;;;;2.13;1.40;;;30.50;99.90;;;;;;4193113;28;20425;-66
2022/08/16 11:19:25;;;;;;;2.88;1.38;;;30.40;99.90;;;;;;4211599;28;20044;-67
2022/08/16 11:21:32;;;;;;;4.43;1.63;;;30.50;99.90;;;;;;4211865;28;20040;-67
2022/08/16 11:23:37;;;;;;;2.55;1.35;;;30.50;99.90;;;;;;4212120;28;20072;-66
2022/08/16 11:25:59;;;;;;;6.78;1.88;;;30.50;99.90;;;;;;4207513;28;20043;-65
2022/08/16 11:28:24;;;;;;;3.70;1.60;;;30.50;99.90;;;;;;4208056;28;20044;-66
2022/08/16 11:30:49;;;;;;;5.90;1.80;;;30.50;99.90;;;;;;4207808;28;20043;-66
2022/08/16 11:33:02;;;;;;;3.17;1.63;;;30.40;99.90;;;;;;4209246;28;20102;-66
2022/08/16 11:35:10;;;;;;;3.15;1.80;;;30.40;99.90;;;;;;4242149;27;20089;-66